sensor_id;sensor_type;location;lat;lon;timestamp;P1;durP1;ratioP1;P2;durP2;ratioP2
35909;SDS011;22004;49.120;-0.200;2022-08-01T00:00:05;3.92;;;1.80;;
35909;SDS011;22004;49.120;-0.200;2022-08-01T00:02:32;4.47;;;2.40;;
35909;SDS011;22004;49.120;-0.200;2022-08-01T00:04:58;3.80;;;1.80;;
35909;SDS011;22004;49.120;-0.200;2022-08-01T00:07:25;2.58;;;1.60;;
35909;SDS011;22004;49.120;-0.200;2022-08-01T00:09:50;2.63;;;1.80;;
35909;SDS011;22004;49.120;-0.200;2022-08-01T00:12:15;4.88;;;1.92;;
35909;SDS011;22004;49.120;-0.200;2022-08-01T00:14:41;4.70;;;2.00;;
35909;SDS011;22004;49.120;-0.200;2022-08-01T00:17:06;2.55;;;1.77;;
35909;SDS011;22004;49.120;-0.200;2022-08-01T00:19:32;3.05;;;2.00;;
35909;SDS011;22004;49.120;-0.200;2022-08-01T00:21:58;3.83;;;1.80;;
35909;SDS011;22004;49.120;-0.200;2022-08-01T00:24:23;3.35;;;1.80;;
35909;SDS011;22004;49.120;-0.200;2022-08-01T00:26:48;3.70;;;2.13;;
35909;SDS011;22004;49.120;-0.200;2022-08-01T00:29:14;3.15;;;2.13;;
35909;SDS011;22004;49.120;-0.200;2022-08-01T00:31:39;3.25;;;1.80;;
35909;SDS011;22004;49.120;-0.200;2022-08-01T00:34:05;2.60;;;2.00;;
35909;SDS011;22004;49.120;-0.200;2022-08-01T00:36:30;4.30;;;2.15;;
35909;SDS011;22004;49.120;-0.200;2022-08-01T00:38:55;2.70;;;2.10;;
35909;SDS011;22004;49.120;-0.200;2022-08-01T00:41:22;3.22;;;1.90;;
35909;SDS011;22004;49.120;-0.200;2022-08-01T00:43:47;2.13;;;1.65;;
35909;SDS011;22004;49.120;-0.200;2022-08-01T00:46:13;3.58;;;1.73;;
35909;SDS011;22004;49.120;-0.200;2022-08-01T00:48:38;4.13;;;1.70;;
35909;SDS011;22004;49.120;-0.200;2022-08-01T00:51:04;2.67;;;1.80;;
35909;SDS011;22004;49.120;-0.200;2022-08-01T00:53:29;2.70;;;1.92;;
35909;SDS011;22004;49.120;-0.200;2022-08-01T00:55:55;3.60;;;2.40;;
35909;SDS011;22004;49.120;-0.200;2022-08-01T00:58:21;2.97;;;2.00;;
35909;SDS011;22004;49.120;-0.200;2022-08-01T01:00:48;6.13;;;2.75;;
35909;SDS011;22004;49.120;-0.200;2022-08-01T01:03:13;4.70;;;2.70;;
35909;SDS011;22004;49.120;-0.200;2022-08-01T01:08:41;4.20;;;2.17;;
35909;SDS011;22004;49.120;-0.200;2022-08-01T01:11:25;2.65;;;2.17;;
35909;SDS011;22004;49.120;-0.200;2022-08-01T01:13:55;4.90;;;1.95;;
35909;SDS011;22004;49.120;-0.200;2022-08-01T01:16:25;3.47;;;2.40;;
35909;SDS011;22004;49.120;-0.200;2022-08-01T01:18:55;4.18;;;2.05;;
35909;SDS011;22004;49.120;-0.200;2022-08-01T01:21:32;4.93;;;2.50;;
35909;SDS011;22004;49.120;-0.200;2022-08-01T01:29:50;5.45;;;2.00;;
35909;SDS011;22004;49.120;-0.200;2022-08-01T01:32:30;6.38;;;2.50;;
35909;SDS011;22004;49.120;-0.200;2022-08-01T01:35:00;3.13;;;2.25;;
35909;SDS011;22004;49.120;-0.200;2022-08-01T01:37:31;3.75;;;2.30;;
35909;SDS011;22004;49.120;-0.200;2022-08-01T01:39:59;2.45;;;2.13;;
35909;SDS011;22004;49.120;-0.200;2022-08-01T01:42:27;3.13;;;2.20;;
35909;SDS011;22004;49.120;-0.200;2022-08-01T01:44:54;4.97;;;2.08;;
35909;SDS011;22004;49.120;-0.200;2022-08-01T01:47:21;3.30;;;2.40;;
35909;SDS011;22004;49.120;-0.200;2022-08-01T01:49:47;3.20;;;2.55;;
35909;SDS011;22004;49.120;-0.200;2022-08-01T01:52:16;3.97;;;2.40;;
35909;SDS011;22004;49.120;-0.200;2022-08-01T01:54:52;3.53;;;2.13;;
35909;SDS011;22004;49.120;-0.200;2022-08-01T01:57:19;3.28;;;2.40;;
35909;SDS011;22004;49.120;-0.200;2022-08-01T01:59:46;2.72;;;2.30;;
35909;SDS011;22004;49.120;-0.200;2022-08-01T02:02:14;3.42;;;2.00;;
35909;SDS011;22004;49.120;-0.200;2022-08-01T02:04:42;2.75;;;2.15;;
35909;SDS011;22004;49.120;-0.200;2022-08-01T02:07:10;3.67;;;2.20;;
35909;SDS011;22004;49.120;-0.200;2022-08-01T02:09:38;2.38;;;2.17;;
35909;SDS011;22004;49.120;-0.200;2022-08-01T02:12:07;3.35;;;2.33;;
35909;SDS011;22004;49.120;-0.200;2022-08-01T02:14:35;2.30;;;2.10;;
35909;SDS011;22004;49.120;-0.200;2022-08-01T02:17:02;2.72;;;1.98;;
35909;SDS011;22004;49.120;-0.200;2022-08-01T02:19:34;3.67;;;1.88;;
35909;SDS011;22004;49.120;-0.200;2022-08-01T02:22:08;2.40;;;2.20;;
35909;SDS011;22004;49.120;-0.200;2022-08-01T02:24:40;3.40;;;2.00;;
35909;SDS011;22004;49.120;-0.200;2022-08-01T02:27:07;3.28;;;2.30;;
35909;SDS011;22004;49.120;-0.200;2022-08-01T02:32:33;3.03;;;2.10;;
35909;SDS011;22004;49.120;-0.200;2022-08-01T02:35:03;3.47;;;2.22;;
35909;SDS011;22004;49.120;-0.200;2022-08-01T02:37:33;4.10;;;2.10;;
35909;SDS011;22004;49.120;-0.200;2022-08-01T02:40:01;2.28;;;2.08;;
35909;SDS011;22004;49.120;-0.200;2022-08-01T02:42:27;4.30;;;2.55;;
35909;SDS011;22004;49.120;-0.200;2022-08-01T02:44:55;2.30;;;2.10;;
35909;SDS011;22004;49.120;-0.200;2022-08-01T02:47:22;2.65;;;2.42;;
35909;SDS011;22004;49.120;-0.200;2022-08-01T02:49:50;4.50;;;2.90;;
35909;SDS011;22004;49.120;-0.200;2022-08-01T02:52:17;2.83;;;2.00;;
35909;SDS011;22004;49.120;-0.200;2022-08-01T02:54:45;3.67;;;2.10;;
35909;SDS011;22004;49.120;-0.200;2022-08-01T02:57:13;4.07;;;2.42;;
35909;SDS011;22004;49.120;-0.200;2022-08-01T02:59:41;3.58;;;2.10;;
35909;SDS011;22004;49.120;-0.200;2022-08-01T03:02:07;6.65;;;3.25;;
35909;SDS011;22004;49.120;-0.200;2022-08-01T03:04:34;3.38;;;2.40;;
35909;SDS011;22004;49.120;-0.200;2022-08-01T03:07:02;4.65;;;2.60;;
35909;SDS011;22004;49.120;-0.200;2022-08-01T03:09:30;5.28;;;2.90;;
35909;SDS011;22004;49.120;-0.200;2022-08-01T03:11:59;4.88;;;2.42;;
35909;SDS011;22004;49.120;-0.200;2022-08-01T03:14:27;3.58;;;2.80;;
35909;SDS011;22004;49.120;-0.200;2022-08-01T03:16:55;3.35;;;2.30;;
35909;SDS011;22004;49.120;-0.200;2022-08-01T03:19:23;4.75;;;2.47;;
35909;SDS011;22004;49.120;-0.200;2022-08-01T03:21:50;3.60;;;2.25;;
35909;SDS011;22004;49.120;-0.200;2022-08-01T03:24:17;6.00;;;2.60;;
35909;SDS011;22004;49.120;-0.200;2022-08-01T03:26:44;3.80;;;2.30;;
35909;SDS011;22004;49.120;-0.200;2022-08-01T03:29:15;3.75;;;2.55;;
35909;SDS011;22004;49.120;-0.200;2022-08-01T03:31:46;6.20;;;2.22;;
35909;SDS011;22004;49.120;-0.200;2022-08-01T03:34:13;2.38;;;2.17;;
35909;SDS011;22004;49.120;-0.200;2022-08-01T03:37:02;3.92;;;2.70;;
35909;SDS011;22004;49.120;-0.200;2022-08-01T03:39:34;4.70;;;2.70;;
35909;SDS011;22004;49.120;-0.200;2022-08-01T03:42:09;6.63;;;2.92;;
35909;SDS011;22004;49.120;-0.200;2022-08-01T03:44:39;5.50;;;2.95;;
35909;SDS011;22004;49.120;-0.200;2022-08-01T03:47:07;4.05;;;2.58;;
35909;SDS011;22004;49.120;-0.200;2022-08-01T03:49:41;5.57;;;2.60;;
35909;SDS011;22004;49.120;-0.200;2022-08-01T03:52:09;4.13;;;2.75;;
35909;SDS011;22004;49.120;-0.200;2022-08-01T03:54:37;3.38;;;2.35;;
35909;SDS011;22004;49.120;-0.200;2022-08-01T03:57:07;5.88;;;3.13;;
35909;SDS011;22004;49.120;-0.200;2022-08-01T03:59:35;5.80;;;2.53;;
35909;SDS011;22004;49.120;-0.200;2022-08-01T04:02:01;4.43;;;3.40;;
35909;SDS011;22004;49.120;-0.200;2022-08-01T04:04:28;6.18;;;3.10;;
35909;SDS011;22004;49.120;-0.200;2022-08-01T04:06:54;4.03;;;2.85;;
35909;SDS011;22004;49.120;-0.200;2022-08-01T04:09:19;3.38;;;2.47;;
35909;SDS011;22004;49.120;-0.200;2022-08-01T04:11:46;6.55;;;2.90;;
35909;SDS011;22004;49.120;-0.200;2022-08-01T04:14:12;3.88;;;2.75;;
35909;SDS011;22004;49.120;-0.200;2022-08-01T04:16:38;5.05;;;2.83;;
35909;SDS011;22004;49.120;-0.200;2022-08-01T04:19:03;9.57;;;3.67;;
35909;SDS011;22004;49.120;-0.200;2022-08-01T04:21:32;5.60;;;3.08;;
35909;SDS011;22004;49.120;-0.200;2022-08-01T04:24:04;6.22;;;2.80;;
35909;SDS011;22004;49.120;-0.200;2022-08-01T04:26:34;3.70;;;2.63;;
35909;SDS011;22004;49.120;-0.200;2022-08-01T04:29:02;6.15;;;3.08;;
35909;SDS011;22004;49.120;-0.200;2022-08-01T04:31:30;3.33;;;2.80;;
35909;SDS011;22004;49.120;-0.200;2022-08-01T04:33:57;5.97;;;3.03;;
35909;SDS011;22004;49.120;-0.200;2022-08-01T04:36:24;5.03;;;2.83;;
35909;SDS011;22004;49.120;-0.200;2022-08-01T04:38:54;12.77;;;3.78;;
35909;SDS011;22004;49.120;-0.200;2022-08-01T04:41:22;5.03;;;3.05;;
35909;SDS011;22004;49.120;-0.200;2022-08-01T04:43:48;4.00;;;2.72;;
35909;SDS011;22004;49.120;-0.200;2022-08-01T04:46:16;5.45;;;3.20;;
35909;SDS011;22004;49.120;-0.200;2022-08-01T04:48:42;4.65;;;2.45;;
35909;SDS011;22004;49.120;-0.200;2022-08-01T04:51:13;5.95;;;3.45;;
35909;SDS011;22004;49.120;-0.200;2022-08-01T04:53:42;3.88;;;2.95;;
35909;SDS011;22004;49.120;-0.200;2022-08-01T04:56:08;5.32;;;2.95;;
35909;SDS011;22004;49.120;-0.200;2022-08-01T04:58:34;6.90;;;3.10;;
35909;SDS011;22004;49.120;-0.200;2022-08-01T05:01:00;5.72;;;2.95;;
35909;SDS011;22004;49.120;-0.200;2022-08-01T05:03:25;4.80;;;2.92;;
35909;SDS011;22004;49.120;-0.200;2022-08-01T05:05:50;5.82;;;2.70;;
35909;SDS011;22004;49.120;-0.200;2022-08-01T05:08:16;8.82;;;2.88;;
35909;SDS011;22004;49.120;-0.200;2022-08-01T05:10:41;7.15;;;3.10;;
35909;SDS011;22004;49.120;-0.200;2022-08-01T05:13:07;7.60;;;3.20;;
35909;SDS011;22004;49.120;-0.200;2022-08-01T05:15:34;7.50;;;3.40;;
35909;SDS011;22004;49.120;-0.200;2022-08-01T05:18:01;3.88;;;2.85;;
35909;SDS011;22004;49.120;-0.200;2022-08-01T05:20:27;6.82;;;2.90;;
35909;SDS011;22004;49.120;-0.200;2022-08-01T05:22:52;5.97;;;3.15;;
35909;SDS011;22004;49.120;-0.200;2022-08-01T05:25:17;3.00;;;2.70;;
35909;SDS011;22004;49.120;-0.200;2022-08-01T05:27:43;5.22;;;3.42;;
35909;SDS011;22004;49.120;-0.200;2022-08-01T05:30:08;10.95;;;4.07;;
35909;SDS011;22004;49.120;-0.200;2022-08-01T05:32:35;6.30;;;3.40;;
35909;SDS011;22004;49.120;-0.200;2022-08-01T05:35:01;5.55;;;2.90;;
35909;SDS011;22004;49.120;-0.200;2022-08-01T05:37:27;7.70;;;3.38;;
35909;SDS011;22004;49.120;-0.200;2022-08-01T05:39:52;6.40;;;3.55;;
35909;SDS011;22004;49.120;-0.200;2022-08-01T05:42:18;4.55;;;3.40;;
35909;SDS011;22004;49.120;-0.200;2022-08-01T05:44:43;9.70;;;3.40;;
35909;SDS011;22004;49.120;-0.200;2022-08-01T05:47:08;7.97;;;3.72;;
35909;SDS011;22004;49.120;-0.200;2022-08-01T05:49:34;5.25;;;3.28;;
35909;SDS011;22004;49.120;-0.200;2022-08-01T05:51:59;7.53;;;3.42;;
35909;SDS011;22004;49.120;-0.200;2022-08-01T05:54:26;9.45;;;4.05;;
35909;SDS011;22004;49.120;-0.200;2022-08-01T05:56:52;11.57;;;4.85;;
35909;SDS011;22004;49.120;-0.200;2022-08-01T05:59:18;9.40;;;4.40;;
35909;SDS011;22004;49.120;-0.200;2022-08-01T06:01:43;5.90;;;3.38;;
35909;SDS011;22004;49.120;-0.200;2022-08-01T06:04:08;8.50;;;3.75;;
35909;SDS011;22004;49.120;-0.200;2022-08-01T06:06:34;8.05;;;3.38;;
35909;SDS011;22004;49.120;-0.200;2022-08-01T06:08:59;5.68;;;3.60;;
35909;SDS011;22004;49.120;-0.200;2022-08-01T06:11:25;5.60;;;3.30;;
35909;SDS011;22004;49.120;-0.200;2022-08-01T06:13:50;6.88;;;3.40;;
35909;SDS011;22004;49.120;-0.200;2022-08-01T06:16:16;6.63;;;3.53;;
35909;SDS011;22004;49.120;-0.200;2022-08-01T06:18:41;7.93;;;4.32;;
35909;SDS011;22004;49.120;-0.200;2022-08-01T06:21:07;5.80;;;3.45;;
35909;SDS011;22004;49.120;-0.200;2022-08-01T06:23:32;7.95;;;3.33;;
35909;SDS011;22004;49.120;-0.200;2022-08-01T06:25:57;4.75;;;3.58;;
35909;SDS011;22004;49.120;-0.200;2022-08-01T06:28:23;8.52;;;3.40;;
35909;SDS011;22004;49.120;-0.200;2022-08-01T06:30:49;8.68;;;3.95;;
35909;SDS011;22004;49.120;-0.200;2022-08-01T06:33:14;6.57;;;3.92;;
35909;SDS011;22004;49.120;-0.200;2022-08-01T06:35:39;13.27;;;3.90;;
35909;SDS011;22004;49.120;-0.200;2022-08-01T06:38:05;6.82;;;3.92;;
35909;SDS011;22004;49.120;-0.200;2022-08-01T06:40:30;7.20;;;3.92;;
35909;SDS011;22004;49.120;-0.200;2022-08-01T06:42:56;9.32;;;4.47;;
35909;SDS011;22004;49.120;-0.200;2022-08-01T06:45:21;8.77;;;4.25;;
35909;SDS011;22004;49.120;-0.200;2022-08-01T06:47:47;9.77;;;4.22;;
35909;SDS011;22004;49.120;-0.200;2022-08-01T06:50:13;10.43;;;4.05;;
35909;SDS011;22004;49.120;-0.200;2022-08-01T06:52:39;10.23;;;4.10;;
35909;SDS011;22004;49.120;-0.200;2022-08-01T06:55:06;9.10;;;3.97;;
35909;SDS011;22004;49.120;-0.200;2022-08-01T06:57:32;9.73;;;4.32;;
35909;SDS011;22004;49.120;-0.200;2022-08-01T06:59:57;5.50;;;3.63;;
35909;SDS011;22004;49.120;-0.200;2022-08-01T07:02:31;9.30;;;4.22;;
35909;SDS011;22004;49.120;-0.200;2022-08-01T07:04:56;9.95;;;4.70;;
35909;SDS011;22004;49.120;-0.200;2022-08-01T07:07:25;8.18;;;4.10;;
35909;SDS011;22004;49.120;-0.200;2022-08-01T07:09:50;6.32;;;4.28;;
35909;SDS011;22004;49.120;-0.200;2022-08-01T07:12:16;11.20;;;5.03;;
35909;SDS011;22004;49.120;-0.200;2022-08-01T07:14:41;7.80;;;4.20;;
35909;SDS011;22004;49.120;-0.200;2022-08-01T07:17:06;8.57;;;4.20;;
35909;SDS011;22004;49.120;-0.200;2022-08-01T07:19:32;7.65;;;4.45;;
35909;SDS011;22004;49.120;-0.200;2022-08-01T07:21:58;8.45;;;4.03;;
35909;SDS011;22004;49.120;-0.200;2022-08-01T07:24:23;9.75;;;4.00;;
35909;SDS011;22004;49.120;-0.200;2022-08-01T07:26:49;11.57;;;4.38;;
35909;SDS011;22004;49.120;-0.200;2022-08-01T07:29:14;11.32;;;3.95;;
35909;SDS011;22004;49.120;-0.200;2022-08-01T07:31:40;8.27;;;4.63;;
35909;SDS011;22004;49.120;-0.200;2022-08-01T07:34:05;7.65;;;4.45;;
35909;SDS011;22004;49.120;-0.200;2022-08-01T07:36:30;6.53;;;4.60;;
35909;SDS011;22004;49.120;-0.200;2022-08-01T07:38:56;8.70;;;4.38;;
35909;SDS011;22004;49.120;-0.200;2022-08-01T07:41:21;9.45;;;4.10;;
35909;SDS011;22004;49.120;-0.200;2022-08-01T07:43:47;9.20;;;4.57;;
35909;SDS011;22004;49.120;-0.200;2022-08-01T07:46:14;5.90;;;4.03;;
35909;SDS011;22004;49.120;-0.200;2022-08-01T07:48:39;7.40;;;4.50;;
35909;SDS011;22004;49.120;-0.200;2022-08-01T07:51:04;8.55;;;4.25;;
35909;SDS011;22004;49.120;-0.200;2022-08-01T07:53:30;6.07;;;3.55;;
35909;SDS011;22004;49.120;-0.200;2022-08-01T07:55:55;8.55;;;4.28;;
35909;SDS011;22004;49.120;-0.200;2022-08-01T07:58:21;8.65;;;3.92;;
35909;SDS011;22004;49.120;-0.200;2022-08-01T08:00:46;7.82;;;4.20;;
35909;SDS011;22004;49.120;-0.200;2022-08-01T08:03:11;5.35;;;3.70;;
35909;SDS011;22004;49.120;-0.200;2022-08-01T08:05:37;12.45;;;4.78;;
35909;SDS011;22004;49.120;-0.200;2022-08-01T08:08:05;7.97;;;4.20;;
35909;SDS011;22004;49.120;-0.200;2022-08-01T08:10:31;7.25;;;4.45;;
35909;SDS011;22004;49.120;-0.200;2022-08-01T08:12:57;6.22;;;3.92;;
35909;SDS011;22004;49.120;-0.200;2022-08-01T08:15:31;9.70;;;4.18;;
35909;SDS011;22004;49.120;-0.200;2022-08-01T08:17:57;5.40;;;3.75;;
35909;SDS011;22004;49.120;-0.200;2022-08-01T08:20:22;7.30;;;3.83;;
35909;SDS011;22004;49.120;-0.200;2022-08-01T08:22:51;12.63;;;3.97;;
35909;SDS011;22004;49.120;-0.200;2022-08-01T08:25:17;6.10;;;4.05;;
35909;SDS011;22004;49.120;-0.200;2022-08-01T08:27:46;10.73;;;4.18;;
35909;SDS011;22004;49.120;-0.200;2022-08-01T08:30:12;6.32;;;4.15;;
35909;SDS011;22004;49.120;-0.200;2022-08-01T08:32:38;5.90;;;3.88;;
35909;SDS011;22004;49.120;-0.200;2022-08-01T08:35:05;5.55;;;3.28;;
35909;SDS011;22004;49.120;-0.200;2022-08-01T08:37:31;5.43;;;3.30;;
35909;SDS011;22004;49.120;-0.200;2022-08-01T08:39:57;5.38;;;3.33;;
35909;SDS011;22004;49.120;-0.200;2022-08-01T08:42:22;4.50;;;3.30;;
35909;SDS011;22004;49.120;-0.200;2022-08-01T08:44:48;8.10;;;4.05;;
35909;SDS011;22004;49.120;-0.200;2022-08-01T08:47:14;9.25;;;3.85;;
35909;SDS011;22004;49.120;-0.200;2022-08-01T08:49:41;8.27;;;3.50;;
35909;SDS011;22004;49.120;-0.200;2022-08-01T08:52:08;5.18;;;3.30;;
35909;SDS011;22004;49.120;-0.200;2022-08-01T08:54:35;5.70;;;3.75;;
35909;SDS011;22004;49.120;-0.200;2022-08-01T08:57:02;5.85;;;4.07;;
35909;SDS011;22004;49.120;-0.200;2022-08-01T08:59:29;8.18;;;3.85;;
35909;SDS011;22004;49.120;-0.200;2022-08-01T09:01:55;6.45;;;3.65;;
35909;SDS011;22004;49.120;-0.200;2022-08-01T09:04:21;8.68;;;3.90;;
35909;SDS011;22004;49.120;-0.200;2022-08-01T09:06:50;6.57;;;3.80;;
35909;SDS011;22004;49.120;-0.200;2022-08-01T09:09:16;9.15;;;3.90;;
35909;SDS011;22004;49.120;-0.200;2022-08-01T09:11:42;9.57;;;3.83;;
35909;SDS011;22004;49.120;-0.200;2022-08-01T09:14:11;4.70;;;3.58;;
35909;SDS011;22004;49.120;-0.200;2022-08-01T09:16:43;7.78;;;3.90;;
35909;SDS011;22004;49.120;-0.200;2022-08-01T09:21:59;6.53;;;3.72;;
35909;SDS011;22004;49.120;-0.200;2022-08-01T09:24:28;4.15;;;3.35;;
35909;SDS011;22004;49.120;-0.200;2022-08-01T09:26:54;4.28;;;2.97;;
35909;SDS011;22004;49.120;-0.200;2022-08-01T09:29:22;6.82;;;3.75;;
35909;SDS011;22004;49.120;-0.200;2022-08-01T09:31:49;4.53;;;3.42;;
35909;SDS011;22004;49.120;-0.200;2022-08-01T09:34:16;5.03;;;3.20;;
35909;SDS011;22004;49.120;-0.200;2022-08-01T09:39:20;4.45;;;3.25;;
35909;SDS011;22004;49.120;-0.200;2022-08-01T09:41:48;4.28;;;3.10;;
35909;SDS011;22004;49.120;-0.200;2022-08-01T09:44:14;4.30;;;2.90;;
35909;SDS011;22004;49.120;-0.200;2022-08-01T09:47:15;8.55;;;2.90;;
35909;SDS011;22004;49.120;-0.200;2022-08-01T09:49:34;6.13;;;3.05;;
35909;SDS011;22004;49.120;-0.200;2022-08-01T09:54:36;4.17;;;3.30;;
35909;SDS011;22004;49.120;-0.200;2022-08-01T09:57:15;5.85;;;3.00;;
35909;SDS011;22004;49.120;-0.200;2022-08-01T09:59:43;6.50;;;3.03;;
35909;SDS011;22004;49.120;-0.200;2022-08-01T10:02:10;7.47;;;2.92;;
35909;SDS011;22004;49.120;-0.200;2022-08-01T10:04:45;6.40;;;3.50;;
35909;SDS011;22004;49.120;-0.200;2022-08-01T10:07:12;4.82;;;2.67;;
35909;SDS011;22004;49.120;-0.200;2022-08-01T10:09:40;5.55;;;3.08;;
35909;SDS011;22004;49.120;-0.200;2022-08-01T10:12:05;5.50;;;3.10;;
35909;SDS011;22004;49.120;-0.200;2022-08-01T10:14:31;6.22;;;3.30;;
35909;SDS011;22004;49.120;-0.200;2022-08-01T10:16:59;8.40;;;3.08;;
35909;SDS011;22004;49.120;-0.200;2022-08-01T10:19:26;3.83;;;2.60;;
35909;SDS011;22004;49.120;-0.200;2022-08-01T10:21:54;3.78;;;2.60;;
35909;SDS011;22004;49.120;-0.200;2022-08-01T10:24:21;6.63;;;3.00;;
35909;SDS011;22004;49.120;-0.200;2022-08-01T10:26:48;3.47;;;2.65;;
35909;SDS011;22004;49.120;-0.200;2022-08-01T10:29:17;6.45;;;2.70;;
35909;SDS011;22004;49.120;-0.200;2022-08-01T10:31:45;5.32;;;3.53;;
35909;SDS011;22004;49.120;-0.200;2022-08-01T10:34:12;5.68;;;2.88;;
35909;SDS011;22004;49.120;-0.200;2022-08-01T10:36:46;4.60;;;3.28;;
35909;SDS011;22004;49.120;-0.200;2022-08-01T10:39:12;4.38;;;2.58;;
35909;SDS011;22004;49.120;-0.200;2022-08-01T10:41:38;3.70;;;2.58;;
35909;SDS011;22004;49.120;-0.200;2022-08-01T10:44:07;6.45;;;2.88;;
35909;SDS011;22004;49.120;-0.200;2022-08-01T10:46:45;6.68;;;2.90;;
35909;SDS011;22004;49.120;-0.200;2022-08-01T10:49:15;4.93;;;3.33;;
35909;SDS011;22004;49.120;-0.200;2022-08-01T10:51:42;5.45;;;2.95;;
35909;SDS011;22004;49.120;-0.200;2022-08-01T10:54:09;6.75;;;3.00;;
35909;SDS011;22004;49.120;-0.200;2022-08-01T10:56:43;5.95;;;2.58;;
35909;SDS011;22004;49.120;-0.200;2022-08-01T10:59:09;5.20;;;3.10;;
35909;SDS011;22004;49.120;-0.200;2022-08-01T11:01:34;9.15;;;3.17;;
35909;SDS011;22004;49.120;-0.200;2022-08-01T11:06:48;7.97;;;2.87;;
35909;SDS011;22004;49.120;-0.200;2022-08-01T11:12:05;4.20;;;2.67;;
35909;SDS011;22004;49.120;-0.200;2022-08-01T11:25:26;4.82;;;3.20;;
35909;SDS011;22004;49.120;-0.200;2022-08-01T11:30:54;6.05;;;2.85;;
35909;SDS011;22004;49.120;-0.200;2022-08-01T11:38:46;5.30;;;2.90;;
35909;SDS011;22004;49.120;-0.200;2022-08-01T11:41:41;9.90;;;3.00;;
35909;SDS011;22004;49.120;-0.200;2022-08-01T11:51:59;4.13;;;2.55;;
35909;SDS011;22004;49.120;-0.200;2022-08-01T11:54:26;4.55;;;2.45;;
35909;SDS011;22004;49.120;-0.200;2022-08-01T11:56:54;4.88;;;2.13;;
35909;SDS011;22004;49.120;-0.200;2022-08-01T11:59:21;4.32;;;2.88;;
35909;SDS011;22004;49.120;-0.200;2022-08-01T12:01:47;4.00;;;2.63;;
35909;SDS011;22004;49.120;-0.200;2022-08-01T12:04:12;7.78;;;3.30;;
35909;SDS011;22004;49.120;-0.200;2022-08-01T12:06:38;4.32;;;2.95;;
35909;SDS011;22004;49.120;-0.200;2022-08-01T12:09:16;3.63;;;2.95;;
35909;SDS011;22004;49.120;-0.200;2022-08-01T12:11:44;7.30;;;3.10;;
35909;SDS011;22004;49.120;-0.200;2022-08-01T12:14:15;4.80;;;2.60;;
35909;SDS011;22004;49.120;-0.200;2022-08-01T12:16:47;2.88;;;2.47;;
35909;SDS011;22004;49.120;-0.200;2022-08-01T12:19:18;6.22;;;2.88;;
35909;SDS011;22004;49.120;-0.200;2022-08-01T12:21:45;3.28;;;2.60;;
35909;SDS011;22004;49.120;-0.200;2022-08-01T12:24:29;4.78;;;3.03;;
35909;SDS011;22004;49.120;-0.200;2022-08-01T12:26:55;5.80;;;2.78;;
35909;SDS011;22004;49.120;-0.200;2022-08-01T12:29:42;8.55;;;2.90;;
35909;SDS011;22004;49.120;-0.200;2022-08-01T12:34:56;3.78;;;2.65;;
35909;SDS011;22004;49.120;-0.200;2022-08-01T12:37:25;6.20;;;2.80;;
35909;SDS011;22004;49.120;-0.200;2022-08-01T12:39:51;6.00;;;2.88;;
35909;SDS011;22004;49.120;-0.200;2022-08-01T12:42:16;5.20;;;2.90;;
35909;SDS011;22004;49.120;-0.200;2022-08-01T12:44:43;5.65;;;2.95;;
35909;SDS011;22004;49.120;-0.200;2022-08-01T12:47:12;6.68;;;2.83;;
35909;SDS011;22004;49.120;-0.200;2022-08-01T12:49:40;5.00;;;3.10;;
35909;SDS011;22004;49.120;-0.200;2022-08-01T12:52:07;7.22;;;2.95;;
35909;SDS011;22004;49.120;-0.200;2022-08-01T12:57:39;5.70;;;3.13;;
35909;SDS011;22004;49.120;-0.200;2022-08-01T13:02:36;5.75;;;3.50;;
35909;SDS011;22004;49.120;-0.200;2022-08-01T13:05:04;3.45;;;3.03;;
35909;SDS011;22004;49.120;-0.200;2022-08-01T13:07:37;3.35;;;3.05;;
35909;SDS011;22004;49.120;-0.200;2022-08-01T13:10:06;4.20;;;2.97;;
35909;SDS011;22004;49.120;-0.200;2022-08-01T13:12:32;7.47;;;3.25;;
35909;SDS011;22004;49.120;-0.200;2022-08-01T13:14:58;3.30;;;3.00;;
35909;SDS011;22004;49.120;-0.200;2022-08-01T13:17:33;5.97;;;3.42;;
35909;SDS011;22004;49.120;-0.200;2022-08-01T13:20:03;3.55;;;2.80;;
35909;SDS011;22004;49.120;-0.200;2022-08-01T13:22:33;4.40;;;3.33;;
35909;SDS011;22004;49.120;-0.200;2022-08-01T13:25:09;5.25;;;3.05;;
35909;SDS011;22004;49.120;-0.200;2022-08-01T13:27:39;5.75;;;3.33;;
35909;SDS011;22004;49.120;-0.200;2022-08-01T13:30:17;6.25;;;3.38;;
35909;SDS011;22004;49.120;-0.200;2022-08-01T13:32:56;4.88;;;3.10;;
35909;SDS011;22004;49.120;-0.200;2022-08-01T13:35:22;7.68;;;3.33;;
35909;SDS011;22004;49.120;-0.200;2022-08-01T13:37:48;6.68;;;3.55;;
35909;SDS011;22004;49.120;-0.200;2022-08-01T13:40:22;8.05;;;3.60;;
35909;SDS011;22004;49.120;-0.200;2022-08-01T13:42:51;7.18;;;3.55;;
35909;SDS011;22004;49.120;-0.200;2022-08-01T13:45:18;5.35;;;3.25;;
35909;SDS011;22004;49.120;-0.200;2022-08-01T13:47:44;6.35;;;3.33;;
35909;SDS011;22004;49.120;-0.200;2022-08-01T13:50:09;6.53;;;3.85;;
35909;SDS011;22004;49.120;-0.200;2022-08-01T13:52:35;4.70;;;3.25;;
35909;SDS011;22004;49.120;-0.200;2022-08-01T13:55:00;6.78;;;3.13;;
35909;SDS011;22004;49.120;-0.200;2022-08-01T13:57:27;9.48;;;3.08;;
35909;SDS011;22004;49.120;-0.200;2022-08-01T13:59:53;5.43;;;3.05;;
35909;SDS011;22004;49.120;-0.200;2022-08-01T14:02:18;3.83;;;3.15;;
35909;SDS011;22004;49.120;-0.200;2022-08-01T14:04:44;9.30;;;3.40;;
35909;SDS011;22004;49.120;-0.200;2022-08-01T14:07:09;4.72;;;3.28;;
35909;SDS011;22004;49.120;-0.200;2022-08-01T14:09:35;4.85;;;3.13;;
35909;SDS011;22004;49.120;-0.200;2022-08-01T14:12:01;6.60;;;3.22;;
35909;SDS011;22004;49.120;-0.200;2022-08-01T14:14:26;5.60;;;3.30;;
35909;SDS011;22004;49.120;-0.200;2022-08-01T14:16:52;7.53;;;3.33;;
35909;SDS011;22004;49.120;-0.200;2022-08-01T14:19:17;4.78;;;3.35;;
35909;SDS011;22004;49.120;-0.200;2022-08-01T14:21:43;7.70;;;3.50;;
35909;SDS011;22004;49.120;-0.200;2022-08-01T14:24:08;6.60;;;3.45;;
35909;SDS011;22004;49.120;-0.200;2022-08-01T14:26:34;6.25;;;3.20;;
35909;SDS011;22004;49.120;-0.200;2022-08-01T14:29:00;5.43;;;3.25;;
35909;SDS011;22004;49.120;-0.200;2022-08-01T14:31:25;10.75;;;2.88;;
35909;SDS011;22004;49.120;-0.200;2022-08-01T14:33:51;7.57;;;3.38;;
35909;SDS011;22004;49.120;-0.200;2022-08-01T14:36:16;10.52;;;3.17;;
35909;SDS011;22004;49.120;-0.200;2022-08-01T14:38:42;8.10;;;3.00;;
35909;SDS011;22004;49.120;-0.200;2022-08-01T14:41:07;6.75;;;3.13;;
35909;SDS011;22004;49.120;-0.200;2022-08-01T14:43:33;9.23;;;3.10;;
35909;SDS011;22004;49.120;-0.200;2022-08-01T14:45:59;7.60;;;3.38;;
35909;SDS011;22004;49.120;-0.200;2022-08-01T14:48:25;6.10;;;3.08;;
35909;SDS011;22004;49.120;-0.200;2022-08-01T14:50:50;9.25;;;3.10;;
35909;SDS011;22004;49.120;-0.200;2022-08-01T14:53:16;6.18;;;2.60;;
35909;SDS011;22004;49.120;-0.200;2022-08-01T14:55:41;5.75;;;2.78;;
35909;SDS011;22004;49.120;-0.200;2022-08-01T14:58:06;7.50;;;3.13;;
35909;SDS011;22004;49.120;-0.200;2022-08-01T15:00:32;4.70;;;3.28;;
35909;SDS011;22004;49.120;-0.200;2022-08-01T15:02:57;6.32;;;2.70;;
35909;SDS011;22004;49.120;-0.200;2022-08-01T15:05:23;5.95;;;2.70;;
35909;SDS011;22004;49.120;-0.200;2022-08-01T15:07:48;6.32;;;2.50;;
35909;SDS011;22004;49.120;-0.200;2022-08-01T15:10:13;5.82;;;3.22;;
35909;SDS011;22004;49.120;-0.200;2022-08-01T15:12:41;8.23;;;2.70;;
35909;SDS011;22004;49.120;-0.200;2022-08-01T15:15:07;4.47;;;2.70;;
35909;SDS011;22004;49.120;-0.200;2022-08-01T15:17:32;6.10;;;2.75;;
35909;SDS011;22004;49.120;-0.200;2022-08-01T15:19:59;5.55;;;2.97;;
35909;SDS011;22004;49.120;-0.200;2022-08-01T15:22:27;9.13;;;2.40;;
35909;SDS011;22004;49.120;-0.200;2022-08-01T15:24:53;9.40;;;2.47;;
35909;SDS011;22004;49.120;-0.200;2022-08-01T15:27:20;5.22;;;2.45;;
35909;SDS011;22004;49.120;-0.200;2022-08-01T15:29:49;4.20;;;2.72;;
35909;SDS011;22004;49.120;-0.200;2022-08-01T15:32:14;4.65;;;2.33;;
35909;SDS011;22004;49.120;-0.200;2022-08-01T15:34:40;4.20;;;2.50;;